createdAt,value
2022-12-15T00:00:50.711Z,-6.58
2022-12-15T00:03:38.062Z,-6.65
2022-12-15T00:06:24.217Z,-6.64
2022-12-15T00:09:14.437Z,-6.62
2022-12-15T00:12:00.801Z,-6.59
2022-12-15T00:14:46.212Z,-6.59
2022-12-15T00:17:31.976Z,-6.57
2022-12-15T00:20:18.016Z,-6.56
2022-12-15T00:23:07.032Z,-6.54
2022-12-15T00:25:53.834Z,-6.54
2022-12-15T00:28:39.901Z,-6.52
2022-12-15T00:31:25.589Z,-6.52
2022-12-15T00:34:12.343Z,-6.53
2022-12-15T00:36:57.527Z,-6.57
2022-12-15T00:39:25.604Z,-6.56
2022-12-15T00:41:55.043Z,-6.59
2022-12-15T00:44:24.010Z,-6.62
2022-12-15T00:46:54.872Z,-6.62
2022-12-15T00:49:41.238Z,-6.65
2022-12-15T00:52:27.825Z,-6.71
2022-12-15T00:55:14.845Z,-6.75
2022-12-15T00:58:02.052Z,-6.78
2022-12-15T01:00:47.972Z,-6.70
2022-12-15T01:03:36.681Z,-6.73
2022-12-15T01:06:27.743Z,-6.77
2022-12-15T01:09:13.478Z,-6.78
2022-12-15T01:11:59.778Z,-6.79
2022-12-15T01:14:47.016Z,-6.79
2022-12-15T01:17:33.150Z,-6.84
2022-12-15T01:20:18.642Z,-6.86
2022-12-15T01:22:51.478Z,-6.96
2022-12-15T01:25:22.083Z,-6.95
2022-12-15T01:27:51.074Z,-7.03
2022-12-15T01:30:23.331Z,-6.97
2022-12-15T01:32:51.536Z,-7.02
2022-12-15T01:35:24.379Z,-7.03
2022-12-15T01:37:55.949Z,-7.13
2022-12-15T01:40:41.247Z,-7.18
2022-12-15T01:43:15.620Z,-7.18
2022-12-15T01:46:05.391Z,-7.19
2022-12-15T01:48:37.447Z,-7.27
2022-12-15T01:51:11.630Z,-7.30
2022-12-15T01:53:43.243Z,-7.33
2022-12-15T01:56:14.621Z,-7.36
2022-12-15T01:58:44.820Z,-7.32
2022-12-15T02:01:14.683Z,-7.34
2022-12-15T02:03:44.936Z,-7.21
2022-12-15T02:06:14.470Z,-7.21
2022-12-15T02:08:45.315Z,-7.19
2022-12-15T02:11:43.577Z,-7.17
2022-12-15T02:14:13.713Z,-7.09
2022-12-15T02:16:59.197Z,-7.10
2022-12-15T02:20:00.806Z,-7.02
2022-12-15T02:22:34.922Z,-7.00
2022-12-15T02:25:24.199Z,-7.01
2022-12-15T02:28:00.849Z,-7.00
2022-12-15T02:30:37.753Z,-7.00
2022-12-15T02:33:11.384Z,-7.04
2022-12-15T02:35:53.639Z,-7.03
2022-12-15T02:38:31.632Z,-7.08
2022-12-15T02:41:01.120Z,-7.11
2022-12-15T02:43:30.540Z,-7.11
2022-12-15T02:46:13.075Z,-7.05
2022-12-15T02:48:51.709Z,-6.99
2022-12-15T02:51:30.123Z,-7.01
2022-12-15T02:54:12.532Z,-7.01
2022-12-15T02:56:45.431Z,-7.03
2022-12-15T02:59:17.089Z,-7.07
2022-12-15T03:01:52.929Z,-7.10
2022-12-15T03:04:22.339Z,-7.06
2022-12-15T03:07:00.900Z,-7.00
2022-12-15T03:09:30.872Z,-6.93
2022-12-15T03:12:00.266Z,-6.87
2022-12-15T03:14:28.397Z,-6.83
2022-12-15T03:16:58.052Z,-6.73
2022-12-15T03:19:28.573Z,-6.72
2022-12-15T03:21:58.699Z,-6.62
2022-12-15T03:24:27.048Z,-6.57
2022-12-15T03:26:56.704Z,-6.49
2022-12-15T03:29:25.514Z,-6.46
2022-12-15T03:31:54.972Z,-6.45
2022-12-15T03:34:25.406Z,-6.40
2022-12-15T03:36:57.539Z,-6.36
2022-12-15T03:39:28.633Z,-6.34
2022-12-15T03:41:58.100Z,-6.32
2022-12-15T03:44:26.461Z,-6.34
2022-12-15T03:47:01.282Z,-6.40
2022-12-15T03:49:34.064Z,-6.43
2022-12-15T03:52:02.713Z,-6.41
2022-12-15T03:54:30.935Z,-6.37
2022-12-15T03:57:02.784Z,-6.35
2022-12-15T03:59:30.864Z,-6.51
2022-12-15T04:02:03.302Z,-6.57
2022-12-15T04:04:34.586Z,-6.57
2022-12-15T04:07:02.567Z,-6.69
2022-12-15T04:09:32.046Z,-6.78
2022-12-15T04:12:03.296Z,-6.79
2022-12-15T04:14:31.420Z,-6.84
2022-12-15T04:17:00.009Z,-6.84
2022-12-15T04:19:45.833Z,-6.94
2022-12-15T04:22:18.197Z,-6.94
2022-12-15T04:25:04.146Z,-7.00
2022-12-15T04:27:49.816Z,-6.96
2022-12-15T04:30:36.630Z,-7.02
2022-12-15T04:33:27.644Z,-7.10
2022-12-15T04:36:16.103Z,-7.11
2022-12-15T04:39:03.589Z,-7.26
2022-12-15T04:41:50.336Z,-7.38
2022-12-15T04:44:36.643Z,-7.39
2022-12-15T04:47:22.009Z,-7.47
2022-12-15T04:50:08.009Z,-7.56
2022-12-15T04:52:54.486Z,-7.75
2022-12-15T04:55:41.457Z,-7.91
2022-12-15T04:58:28.119Z,-8.03
2022-12-15T05:01:16.614Z,-8.02
2022-12-15T05:04:02.583Z,-8.03
2022-12-15T05:06:49.515Z,-8.01
2022-12-15T05:09:34.829Z,-8.01
2022-12-15T05:12:21.548Z,-7.92
2022-12-15T05:15:07.061Z,-7.90
2022-12-15T05:17:53.244Z,-7.78
2022-12-15T05:20:39.638Z,-7.70
2022-12-15T05:23:24.817Z,-7.66
2022-12-15T05:26:10.952Z,-7.68
2022-12-15T05:28:57.619Z,-7.74
2022-12-15T05:31:43.176Z,-7.93
2022-12-15T05:34:12.957Z,-8.12
2022-12-15T05:36:43.131Z,-8.23
2022-12-15T05:39:11.512Z,-8.30
2022-12-15T05:41:39.529Z,-8.28
2022-12-15T05:44:10.809Z,-8.16
2022-12-15T05:46:42.483Z,-8.24
2022-12-15T05:49:16.218Z,-8.31
2022-12-15T05:51:45.892Z,-8.32
2022-12-15T05:54:18.219Z,-8.36
2022-12-15T05:56:50.322Z,-8.24
2022-12-15T05:59:20.517Z,-8.26
2022-12-15T06:01:49.732Z,-8.34
2022-12-15T06:04:18.493Z,-8.38
2022-12-15T06:06:46.562Z,-8.33
2022-12-15T06:09:16.873Z,-8.31
2022-12-15T06:11:45.517Z,-8.34
2022-12-15T06:14:13.480Z,-8.36
2022-12-15T06:16:51.042Z,-8.43
2022-12-15T06:19:20.425Z,-8.44
2022-12-15T06:21:49.565Z,-8.41
2022-12-15T06:24:18.716Z,-8.37
2022-12-15T06:26:46.920Z,-8.32
2022-12-15T06:29:18.296Z,-8.35
2022-12-15T06:31:48.883Z,-8.35
2022-12-15T06:34:19.451Z,-8.35
2022-12-15T06:36:48.678Z,-8.30
2022-12-15T06:39:17.301Z,-8.34
2022-12-15T06:41:45.916Z,-8.31
2022-12-15T06:44:16.177Z,-8.29
2022-12-15T06:46:45.745Z,-8.42
2022-12-15T06:49:16.976Z,-8.40
2022-12-15T06:51:47.797Z,-8.31
2022-12-15T06:54:16.216Z,-8.33
2022-12-15T06:56:45.924Z,-8.22
2022-12-15T06:59:18.798Z,-8.25
2022-12-15T07:01:55.508Z,-8.23
2022-12-15T07:04:24.971Z,-8.30
2022-12-15T07:06:53.879Z,-8.34
2022-12-15T07:09:21.858Z,-8.22
2022-12-15T07:11:51.523Z,-8.24
2022-12-15T07:14:20.837Z,-8.22
2022-12-15T07:16:49.174Z,-8.29
2022-12-15T07:19:17.623Z,-8.31
2022-12-15T07:21:47.575Z,-8.40
2022-12-15T07:24:16.771Z,-8.45
2022-12-15T07:26:48.960Z,-8.53
2022-12-15T07:29:22.829Z,-8.55
2022-12-15T07:31:52.297Z,-8.41
2022-12-15T07:34:22.979Z,-8.31
2022-12-15T07:36:54.015Z,-8.44
2022-12-15T07:39:22.493Z,-8.40
2022-12-15T07:41:50.987Z,-8.42
2022-12-15T07:44:19.300Z,-8.34
2022-12-15T07:46:49.313Z,-8.20
2022-12-15T07:49:17.937Z,-8.18
2022-12-15T07:51:46.577Z,-8.28
2022-12-15T07:54:16.049Z,-8.21
2022-12-15T07:56:44.927Z,-8.24
2022-12-15T07:59:19.645Z,-8.20
2022-12-15T08:01:49.564Z,-8.16
2022-12-15T08:04:18.512Z,-8.12
2022-12-15T08:06:46.873Z,-7.95
2022-12-15T08:09:17.639Z,-7.89
2022-12-15T08:11:46.073Z,-7.90
2022-12-15T08:14:17.947Z,-7.87
2022-12-15T08:16:46.975Z,-7.71
2022-12-15T08:19:25.388Z,-7.79
2022-12-15T08:21:53.517Z,-7.84
2022-12-15T08:24:23.532Z,-7.76
2022-12-15T08:26:53.232Z,-7.67
2022-12-15T08:29:50.577Z,-7.83
2022-12-15T08:32:15.908Z,-7.89
2022-12-15T08:34:45.107Z,-7.80
2022-12-15T08:37:13.938Z,-7.78
2022-12-15T08:39:43.613Z,-7.69
2022-12-15T08:42:12.029Z,-7.71
2022-12-15T08:44:41.937Z,-7.72
2022-12-15T08:47:11.175Z,-7.59
2022-12-15T08:49:41.000Z,-7.55
2022-12-15T08:52:09.423Z,-7.46
2022-12-15T08:54:37.478Z,-7.44
2022-12-15T08:57:09.776Z,-7.56
2022-12-15T08:59:37.974Z,-7.43
2022-12-15T09:02:07.006Z,-7.42
2022-12-15T09:04:35.326Z,-7.37
2022-12-15T09:07:05.010Z,-7.35
2022-12-15T09:09:33.195Z,-7.33
2022-12-15T09:12:01.722Z,-7.32
2022-12-15T09:14:34.034Z,-7.22
2022-12-15T09:17:03.853Z,-7.16
2022-12-15T09:19:32.944Z,-7.17
2022-12-15T09:22:02.959Z,-7.22
2022-12-15T09:24:35.083Z,-6.94
2022-12-15T09:27:05.068Z,-6.94
2022-12-15T09:29:37.033Z,-6.99
2022-12-15T09:32:12.113Z,-6.81
2022-12-15T09:34:42.080Z,-6.86
2022-12-15T09:37:10.309Z,-6.81
2022-12-15T09:39:39.179Z,-6.74
2022-12-15T09:42:18.036Z,-6.61
2022-12-15T09:44:48.392Z,-6.56
2022-12-15T09:47:33.298Z,-6.48
2022-12-15T09:50:04.935Z,-6.26
2022-12-15T09:52:34.716Z,-6.14
2022-12-15T09:55:08.188Z,-5.82
2022-12-15T09:57:42.905Z,-5.78
2022-12-15T10:00:32.420Z,-5.80
2022-12-15T10:03:23.204Z,-5.74
2022-12-15T10:06:22.089Z,-5.79
2022-12-15T10:08:56.089Z,-5.54
2022-12-15T10:11:36.848Z,-5.35
2022-12-15T10:14:12.388Z,-5.42
2022-12-15T10:16:51.810Z,-5.18
2022-12-15T10:19:26.724Z,-4.97
2022-12-15T10:21:55.990Z,-4.48
2022-12-15T10:25:07.492Z,-4.41
2022-12-15T10:27:23.945Z,-4.43
2022-12-15T10:29:59.118Z,-4.36
2022-12-15T10:32:36.717Z,-4.37
2022-12-15T10:35:13.941Z,-4.16
2022-12-15T10:37:42.428Z,-3.95
2022-12-15T10:40:15.491Z,-3.88
2022-12-15T10:42:48.296Z,-3.31
2022-12-15T10:45:35.944Z,-3.32
2022-12-15T10:48:18.375Z,-3.41
2022-12-15T10:50:47.297Z,-2.95
2022-12-15T10:53:39.904Z,-2.63
2022-12-15T10:56:09.432Z,-2.80
2022-12-15T10:58:50.012Z,-3.04
2022-12-15T11:01:21.120Z,-3.38
2022-12-15T11:03:53.540Z,-3.50
2022-12-15T11:06:23.979Z,-3.82
2022-12-15T11:08:55.559Z,-3.90
2022-12-15T11:11:50.424Z,-3.59
2022-12-15T11:14:23.689Z,-3.27
2022-12-15T11:16:56.994Z,-3.15
2022-12-15T11:19:35.094Z,-3.18
2022-12-15T11:22:08.679Z,-3.22
2022-12-15T11:24:42.024Z,-3.16
2022-12-15T11:27:23.000Z,-3.15
2022-12-15T11:30:01.656Z,-3.04
2022-12-15T11:32:31.361Z,-2.97
2022-12-15T11:35:01.238Z,-2.99
2022-12-15T11:37:39.304Z,-3.02
2022-12-15T11:40:39.715Z,-2.64
2022-12-15T11:43:42.358Z,-2.95
2022-12-15T11:46:26.441Z,-2.93
2022-12-15T11:49:24.092Z,-2.62
2022-12-15T11:51:57.871Z,-2.82
2022-12-15T11:54:29.751Z,-2.79
2022-12-15T11:57:03.303Z,-2.89
2022-12-15T11:59:41.582Z,-2.86
2022-12-15T12:02:35.383Z,-2.85
2022-12-15T12:05:17.816Z,-2.76
2022-12-15T12:07:49.467Z,-2.71
2022-12-15T12:10:26.752Z,-2.64
2022-12-15T12:13:02.387Z,-2.69
2022-12-15T12:15:35.346Z,-2.53
2022-12-15T12:18:08.993Z,-2.33
2022-12-15T12:20:43.818Z,-2.45
2022-12-15T12:23:19.713Z,-2.36
2022-12-15T12:26:03.037Z,-2.16
2022-12-15T12:28:37.121Z,-1.86
2022-12-15T12:31:05.517Z,-2.14
2022-12-15T12:33:39.271Z,-2.32
2022-12-15T12:36:13.027Z,-2.52
2022-12-15T12:38:50.603Z,-2.59
2022-12-15T12:41:24.415Z,-2.52
2022-12-15T12:43:55.502Z,-2.62
2022-12-15T12:46:26.680Z,-2.63
2022-12-15T12:48:59.027Z,-2.58
2022-12-15T12:51:30.061Z,-2.66
2022-12-15T12:54:01.586Z,-2.71
2022-12-15T12:56:32.875Z,-2.83
2022-12-15T12:59:08.746Z,-2.62
2022-12-15T13:01:38.326Z,-2.61
2022-12-15T13:04:08.595Z,-2.56
2022-12-15T13:07:02.675Z,-2.50
2022-12-15T13:09:42.978Z,-2.77
2022-12-15T13:12:51.592Z,-2.71
2022-12-15T13:15:32.893Z,-2.39
2022-12-15T13:18:07.609Z,-2.46
2022-12-15T13:20:40.820Z,-2.52
2022-12-15T13:23:37.868Z,-2.60
2022-12-15T13:26:15.441Z,-2.62
2022-12-15T13:28:46.236Z,-2.59
2022-12-15T13:31:32.203Z,-2.66
2022-12-15T13:34:11.741Z,-2.64
2022-12-15T13:37:04.267Z,-2.63
2022-12-15T13:39:35.469Z,-2.68
2022-12-15T13:42:37.341Z,-2.67
2022-12-15T13:45:43.121Z,-2.76
2022-12-15T13:48:21.402Z,-2.83
2022-12-15T13:50:54.306Z,-2.84
2022-12-15T13:53:23.696Z,-2.73
2022-12-15T13:56:03.134Z,-2.89
2022-12-15T13:58:40.344Z,-2.95
2022-12-15T14:01:21.557Z,-2.97
2022-12-15T14:04:01.133Z,-2.99
2022-12-15T14:06:35.061Z,-2.97
2022-12-15T14:09:03.082Z,-2.75
2022-12-15T14:11:52.355Z,-2.80
2022-12-15T14:14:25.602Z,-2.94
2022-12-15T14:17:03.056Z,-3.01
2022-12-15T14:19:39.756Z,-3.09
2022-12-15T14:22:28.738Z,-3.02
2022-12-15T14:25:03.263Z,-2.98
2022-12-15T14:27:34.000Z,-3.06
2022-12-15T14:30:22.496Z,-3.10
2022-12-15T14:32:53.460Z,-3.08
2022-12-15T14:35:30.499Z,-3.13
2022-12-15T14:38:00.550Z,-3.18
2022-12-15T14:40:29.248Z,-3.20
2022-12-15T14:42:59.330Z,-3.24
2022-12-15T14:45:33.698Z,-3.24
2022-12-15T14:50:52.254Z,-3.19
2022-12-15T14:53:23.943Z,-3.31
2022-12-15T14:55:52.013Z,-3.38
2022-12-15T14:58:30.966Z,-3.44
2022-12-15T15:01:07.466Z,-3.41
2022-12-15T15:03:39.122Z,-3.33
2022-12-15T15:06:16.431Z,-3.36
2022-12-15T15:08:48.355Z,-3.36
2022-12-15T15:11:29.431Z,-3.46
2022-12-15T15:14:00.693Z,-3.50
2022-12-15T15:16:30.585Z,-3.54
2022-12-15T15:19:02.411Z,-3.59
2022-12-15T15:21:31.524Z,-3.59
2022-12-15T15:24:02.059Z,-3.60
2022-12-15T15:26:31.128Z,-3.62
2022-12-15T15:28:59.294Z,-3.62
2022-12-15T15:31:40.312Z,-3.67
2022-12-15T15:34:09.150Z,-3.72
2022-12-15T15:36:39.451Z,-3.68
2022-12-15T15:39:12.831Z,-3.69
2022-12-15T15:41:41.523Z,-3.76
2022-12-15T15:44:13.264Z,-3.76
2022-12-15T15:46:47.287Z,-3.76
2022-12-15T15:49:17.325Z,-3.84
2022-12-15T15:51:45.958Z,-3.91
2022-12-15T15:54:16.674Z,-3.83
2022-12-15T15:56:47.644Z,-3.91
2022-12-15T15:59:18.218Z,-3.93
2022-12-15T16:01:51.339Z,-3.93
2022-12-15T16:04:21.815Z,-3.97
2022-12-15T16:07:04.708Z,-3.89
2022-12-15T16:09:33.727Z,-3.92
2022-12-15T16:12:06.347Z,-3.90
2022-12-15T16:14:36.229Z,-3.92
2022-12-15T16:17:09.391Z,-3.95
2022-12-15T16:19:39.782Z,-3.88
2022-12-15T16:22:11.721Z,-3.88
2022-12-15T16:24:39.884Z,-3.79
2022-12-15T16:27:15.477Z,-3.81
2022-12-15T16:29:44.468Z,-3.80
2022-12-15T16:32:15.503Z,-3.84
2022-12-15T16:34:44.048Z,-3.89
2022-12-15T16:37:25.486Z,-3.89
2022-12-15T16:39:53.747Z,-3.91
2022-12-15T16:42:22.084Z,-3.93
2022-12-15T16:44:52.365Z,-3.98
2022-12-15T16:47:21.750Z,-3.98
2022-12-15T16:49:50.859Z,-4.01
2022-12-15T16:52:22.497Z,-4.12
2022-12-15T16:54:51.288Z,-4.12
2022-12-15T16:57:20.250Z,-4.19
2022-12-15T16:59:50.217Z,-4.23
2022-12-15T17:02:27.203Z,-4.24
2022-12-15T17:04:56.985Z,-4.26
2022-12-15T17:07:30.910Z,-4.30
2022-12-15T17:10:00.526Z,-4.30
2022-12-15T17:12:32.772Z,-4.25
2022-12-15T17:15:02.760Z,-4.28
2022-12-15T17:17:32.853Z,-4.35
2022-12-15T17:20:28.475Z,-4.33
2022-12-15T17:22:57.550Z,-4.33
2022-12-15T17:25:54.013Z,-4.43
2022-12-15T17:28:21.945Z,-4.41
2022-12-15T17:30:51.811Z,-4.45
2022-12-15T17:33:23.857Z,-4.44
2022-12-15T17:35:54.198Z,-4.48
2022-12-15T17:39:15.165Z,-4.50
2022-12-15T17:41:59.522Z,-4.51
2022-12-15T17:44:36.391Z,-4.49
2022-12-15T17:47:09.322Z,-4.52
2022-12-15T17:49:40.198Z,-4.51
2022-12-15T17:52:18.383Z,-4.47
2022-12-15T17:54:46.745Z,-4.53
2022-12-15T17:57:16.199Z,-4.53
2022-12-15T17:59:44.104Z,-4.55
2022-12-15T18:02:14.061Z,-4.50
2022-12-15T18:04:44.659Z,-4.51
2022-12-15T18:07:17.213Z,-4.63
2022-12-15T18:09:45.316Z,-4.65
2022-12-15T18:12:21.318Z,-4.63
2022-12-15T18:14:52.188Z,-4.65
2022-12-15T18:17:23.115Z,-4.63
2022-12-15T18:19:52.566Z,-4.71
2022-12-15T18:22:24.443Z,-4.67
2022-12-15T18:24:54.776Z,-4.63
2022-12-15T18:27:26.093Z,-4.59
2022-12-15T18:29:57.031Z,-4.64
2022-12-15T18:32:29.764Z,-4.64
2022-12-15T18:34:59.231Z,-4.74
2022-12-15T18:37:28.208Z,-4.78
2022-12-15T18:40:02.532Z,-4.78
2022-12-15T18:42:34.716Z,-4.83
2022-12-15T18:45:06.573Z,-4.89
2022-12-15T18:47:39.702Z,-4.91
2022-12-15T18:50:14.399Z,-4.86
2022-12-15T18:52:45.020Z,-4.91
2022-12-15T18:55:21.888Z,-4.91
2022-12-15T18:57:51.710Z,-4.91
2022-12-15T19:00:26.683Z,-4.95
2022-12-15T19:02:56.349Z,-4.81
2022-12-15T19:05:32.508Z,-4.95
2022-12-15T19:08:03.842Z,-4.97
2022-12-15T19:10:34.375Z,-4.94
2022-12-15T19:13:02.678Z,-4.95
2022-12-15T19:15:30.899Z,-4.83
2022-12-15T19:18:17.301Z,-4.91
2022-12-15T19:21:06.567Z,-4.94
2022-12-15T19:23:36.693Z,-4.96
2022-12-15T19:26:06.064Z,-4.96
2022-12-15T19:28:34.040Z,-4.98
2022-12-15T19:31:02.377Z,-4.97
2022-12-15T19:33:30.900Z,-4.93
2022-12-15T19:36:01.724Z,-4.96
2022-12-15T19:38:32.258Z,-5.01
2022-12-15T19:41:01.123Z,-5.03
2022-12-15T19:43:32.493Z,-5.04
2022-12-15T19:46:01.045Z,-5.07
2022-12-15T19:48:30.369Z,-5.11
2022-12-15T19:51:01.352Z,-5.10
2022-12-15T19:53:30.938Z,-5.14
2022-12-15T19:56:01.237Z,-5.13
2022-12-15T19:58:31.111Z,-5.12
2022-12-15T20:01:00.529Z,-5.10
2022-12-15T20:03:30.094Z,-5.10
2022-12-15T20:06:01.559Z,-5.08
2022-12-15T20:08:34.181Z,-5.03
2022-12-15T20:11:02.712Z,-5.11
2022-12-15T20:13:31.556Z,-5.06
2022-12-15T20:16:00.425Z,-5.12
2022-12-15T20:18:28.871Z,-5.07
2022-12-15T20:21:04.928Z,-5.10
2022-12-15T20:23:33.170Z,-5.11
2022-12-15T20:26:01.618Z,-5.12
2022-12-15T20:28:31.295Z,-5.11
2022-12-15T20:30:59.763Z,-5.13
2022-12-15T20:33:31.517Z,-5.13
2022-12-15T20:36:13.405Z,-5.11
2022-12-15T20:38:42.323Z,-5.06
2022-12-15T20:41:17.281Z,-5.09
2022-12-15T20:43:46.021Z,-5.14
2022-12-15T20:46:19.180Z,-5.16
2022-12-15T20:48:50.173Z,-5.22
2022-12-15T20:51:23.197Z,-5.20
2022-12-15T20:53:53.887Z,-5.21
2022-12-15T20:56:23.984Z,-5.26
2022-12-15T20:58:56.438Z,-5.29
2022-12-15T21:01:31.762Z,-5.28
2022-12-15T21:04:04.659Z,-5.32
2022-12-15T21:06:34.315Z,-5.30
2022-12-15T21:09:02.861Z,-5.36
2022-12-15T21:11:34.211Z,-5.33
2022-12-15T21:14:04.463Z,-5.41
2022-12-15T21:16:33.628Z,-5.47
2022-12-15T21:19:20.325Z,-5.51
2022-12-15T21:21:56.672Z,-5.59
2022-12-15T21:24:27.891Z,-5.58
2022-12-15T21:26:56.320Z,-5.61
2022-12-15T21:29:26.115Z,-5.56
2022-12-15T21:31:54.511Z,-5.57
2022-12-15T21:34:23.802Z,-5.63
2022-12-15T21:36:55.630Z,-5.66
2022-12-15T21:39:29.369Z,-5.64
2022-12-15T21:42:02.999Z,-5.67
2022-12-15T21:44:31.329Z,-5.68
2022-12-15T21:47:00.332Z,-5.65
2022-12-15T21:49:27.377Z,-5.61
2022-12-15T21:51:58.443Z,-5.57
2022-12-15T21:54:31.125Z,-5.55
2022-12-15T21:56:59.872Z,-5.59
2022-12-15T21:59:30.430Z,-5.59
2022-12-15T22:02:00.560Z,-5.57
2022-12-15T22:04:31.176Z,-5.71
2022-12-15T22:07:00.568Z,-5.66
2022-12-15T22:09:29.657Z,-5.59
2022-12-15T22:11:59.177Z,-5.54
2022-12-15T22:14:29.240Z,-5.60
2022-12-15T22:16:57.936Z,-5.62
2022-12-15T22:19:26.423Z,-5.77
2022-12-15T22:21:54.770Z,-5.81
2022-12-15T22:24:24.517Z,-5.71
2022-12-15T22:26:53.018Z,-5.82
2022-12-15T22:29:22.750Z,-5.80
2022-12-15T22:31:52.002Z,-5.85
2022-12-15T22:34:22.252Z,-5.84
2022-12-15T22:36:52.697Z,-5.87
2022-12-15T22:39:25.072Z,-5.85
2022-12-15T22:41:53.569Z,-5.95
2022-12-15T22:44:23.945Z,-6.02
2022-12-15T22:46:54.157Z,-5.99
2022-12-15T22:49:23.401Z,-5.93
2022-12-15T22:51:51.732Z,-5.98
2022-12-15T22:54:20.779Z,-5.91
2022-12-15T22:56:56.560Z,-5.92
2022-12-15T22:59:30.521Z,-5.92
2022-12-15T23:01:58.921Z,-5.97
2022-12-15T23:04:28.849Z,-5.89
2022-12-15T23:06:58.816Z,-5.95
2022-12-15T23:09:27.187Z,-5.97
2022-12-15T23:11:57.203Z,-5.97
2022-12-15T23:14:55.546Z,-5.99
2022-12-15T23:17:23.514Z,-6.05
2022-12-15T23:19:51.699Z,-6.04
2022-12-15T23:22:20.715Z,-5.98
2022-12-15T23:24:49.086Z,-6.02
2022-12-15T23:27:18.800Z,-5.97
2022-12-15T23:29:47.104Z,-6.00
2022-12-15T23:32:15.377Z,-5.98
2022-12-15T23:34:45.636Z,-5.98
2022-12-15T23:37:15.361Z,-6.08
2022-12-15T23:39:43.648Z,-6.11
2022-12-15T23:42:11.811Z,-6.09
2022-12-15T23:44:42.617Z,-6.16
2022-12-15T23:47:11.462Z,-6.17
2022-12-15T23:49:39.819Z,-6.20
2022-12-15T23:52:09.439Z,-6.27
2022-12-15T23:54:37.787Z,-6.26
2022-12-15T23:57:05.743Z,-6.26
2022-12-15T23:59:36.322Z,-6.33
